Time;durP1;ratioP1;P1;durP2;ratioP2;P2;SDS_P1;SDS_P2;PMS_P1;PMS_P2;Temp;Humidity;BMP_temperature;BMP_pressure;BME280_temperature;BME280_humidity;BME280_pressure;Samples;Min_cycle;Max_cycle;Signal;HPM_P1;HPM_P2
2023/06/01 00:00:01;;;;;;;10.93;6.03;;;13.10;99.90;;;;;;5072128;28;20201;-75
2023/06/01 00:02:28;;;;;;;10.87;6.03;;;13.10;99.90;;;;;;5075063;28;20252;-75
2023/06/01 00:04:55;;;;;;;9.73;6.00;;;13.10;99.90;;;;;;5075016;28;20220;-75
2023/06/01 00:07:23;;;;;;;12.63;6.20;;;13.00;99.90;;;;;;5073684;28;20221;-78
2023/06/01 00:09:50;;;;;;;12.53;5.80;;;13.00;99.90;;;;;;5074674;28;20198;-76
2023/06/01 00:12:18;;;;;;;10.40;5.40;;;12.80;99.90;;;;;;5074231;28;20597;-75
2023/06/01 00:14:45;;;;;;;12.10;5.63;;;12.80;99.90;;;;;;5074244;28;20205;-75
2023/06/01 00:17:12;;;;;;;10.17;5.87;;;12.80;99.90;;;;;;5074692;28;20217;-76
2023/06/01 00:19:39;;;;;;;10.10;6.23;;;12.70;99.90;;;;;;5073748;28;20215;-77
2023/06/01 00:22:07;;;;;;;9.73;5.83;;;12.70;99.90;;;;;;5074532;28;20488;-76
2023/06/01 00:24:34;;;;;;;11.43;5.87;;;12.70;99.90;;;;;;5074386;28;20194;-74
2023/06/01 00:27:01;;;;;;;10.17;5.53;;;12.60;99.90;;;;;;5073621;28;20197;-76
2023/06/01 00:29:29;;;;;;;10.70;5.83;;;12.60;99.90;;;;;;5094413;28;20215;-76
2023/06/01 00:31:56;;;;;;;12.00;6.20;;;12.60;99.90;;;;;;5094559;28;20199;-76
2023/06/01 00:34:23;;;;;;;8.80;5.63;;;12.60;99.90;;;;;;5093969;28;20283;-75
2023/06/01 00:36:50;;;;;;;9.07;5.80;;;12.60;99.90;;;;;;5094303;28;20287;-74
2023/06/01 00:39:17;;;;;;;11.60;6.70;;;12.60;99.90;;;;;;5074116;28;20346;-76
2023/06/01 00:41:44;;;;;;;10.83;6.00;;;12.60;99.90;;;;;;5073308;28;20656;-74
2023/06/01 00:44:11;;;;;;;14.23;6.70;;;12.60;99.90;;;;;;5073669;28;20281;-78
2023/06/01 00:46:39;;;;;;;11.40;7.17;;;12.60;99.90;;;;;;5074135;28;20276;-78
2023/06/01 00:49:07;;;;;;;11.23;6.97;;;12.60;99.90;;;;;;5073471;28;20208;-76
2023/06/01 00:51:35;;;;;;;15.90;7.67;;;12.60;99.90;;;;;;5074023;28;20297;-78
2023/06/01 00:54:02;;;;;;;12.43;7.00;;;12.60;99.90;;;;;;5073803;28;20193;-80
2023/06/01 00:56:31;;;;;;;12.13;6.70;;;12.60;99.90;;;;;;5072834;28;20217;-78
2023/06/01 00:58:58;;;;;;;12.37;7.47;;;12.60;99.90;;;;;;5080431;28;20371;-77
2023/06/01 01:01:25;;;;;;;14.87;7.57;;;12.60;99.90;;;;;;5067050;28;20190;-75
2023/06/01 01:03:57;;;;;;;9.03;6.17;;;12.60;99.90;;;;;;5073689;28;20274;-77
2023/06/01 01:06:31;;;;;;;9.50;6.77;;;12.60;99.90;;;;;;5073364;28;20189;-77
2023/06/01 01:09:10;;;;;;;10.47;6.77;;;12.60;99.90;;;;;;5073308;28;20199;-78
2023/06/01 01:11:40;;;;;;;10.13;6.47;;;12.60;99.90;;;;;;5073373;28;20616;-77
2023/06/01 01:14:12;;;;;;;11.53;6.50;;;12.60;99.90;;;;;;5082550;28;20292;-77
2023/06/01 01:16:47;;;;;;;10.80;6.57;;;12.60;99.90;;;;;;5093461;28;20300;-77
2023/06/01 01:19:35;;;;;;;14.33;6.47;;;12.60;99.90;;;;;;5075755;28;20236;-76
2023/06/01 01:22:15;;;;;;;12.17;6.57;;;12.50;99.90;;;;;;5073380;28;20574;-76
2023/06/01 01:24:55;;;;;;;12.77;6.47;;;12.60;99.90;;;;;;5072718;28;20213;-77
2023/06/01 01:27:31;;;;;;;13.53;6.50;;;12.60;99.90;;;;;;5073313;28;20216;-76
2023/06/01 01:30:05;;;;;;;9.77;5.77;;;12.50;99.90;;;;;;5073128;28;20196;-77
2023/06/01 01:32:33;;;;;;;12.73;7.03;;;12.60;99.90;;;;;;5073141;28;20284;-75
2023/06/01 01:35:01;;;;;;;10.40;5.93;;;12.60;99.90;;;;;;5072428;28;20212;-74
2023/06/01 01:37:28;;;;;;;10.90;6.30;;;12.50;99.90;;;;;;5092343;28;20283;-75
2023/06/01 01:39:55;;;;;;;11.80;5.67;;;12.50;99.90;;;;;;5091633;28;20389;-75
2023/06/01 01:42:22;;;;;;;12.23;6.27;;;12.60;99.90;;;;;;5072892;28;20221;-76
2023/06/01 01:44:49;;;;;;;13.83;6.50;;;12.60;99.90;;;;;;5072320;28;20242;-75
2023/06/01 01:47:25;;;;;;;11.63;6.80;;;12.60;99.90;;;;;;5072595;28;20194;-78
2023/06/01 01:50:00;;;;;;;12.00;7.30;;;12.60;99.90;;;;;;5072784;28;20215;-77
2023/06/01 01:52:32;;;;;;;11.60;6.20;;;12.60;99.90;;;;;;5072394;28;20620;-75
2023/06/01 01:55:01;;;;;;;9.53;6.10;;;12.60;99.90;;;;;;5072684;28;20182;-75
2023/06/01 01:57:32;;;;;;;10.20;6.67;;;12.60;99.90;;;;;;5072433;28;20221;-74
2023/06/01 02:00:00;;;;;;;8.07;6.10;;;12.60;99.90;;;;;;5071636;28;20207;-77
2023/06/01 02:02:29;;;;;;;12.10;6.27;;;12.60;99.90;;;;;;5072805;28;20197;-74
2023/06/01 02:04:56;;;;;;;12.97;6.23;;;12.50;99.90;;;;;;5072003;28;20194;-76
2023/06/01 02:07:23;;;;;;;12.93;6.37;;;12.60;99.90;;;;;;5072377;28;20197;-75
2023/06/01 02:09:50;;;;;;;11.57;5.93;;;12.60;99.90;;;;;;5072671;28;20288;-76
2023/06/01 02:12:17;;;;;;;10.77;5.33;;;12.60;99.90;;;;;;5071678;28;20281;-77
2023/06/01 02:14:44;;;;;;;14.83;5.93;;;12.60;99.90;;;;;;5072287;28;20211;-75
2023/06/01 02:17:10;;;;;;;14.13;5.87;;;12.50;99.90;;;;;;5072516;28;20712;-76
2023/06/01 02:19:39;;;;;;;12.93;6.47;;;12.50;99.90;;;;;;5071796;28;20312;-78
2023/06/01 02:22:06;;;;;;;10.33;5.67;;;12.50;99.90;;;;;;5072512;28;20199;-76
2023/06/01 02:24:33;;;;;;;10.20;6.17;;;12.50;99.90;;;;;;5072096;28;20207;-76
2023/06/01 02:27:00;;;;;;;14.07;6.47;;;12.50;99.90;;;;;;5071423;28;20608;-77
2023/06/01 02:29:27;;;;;;;14.67;6.10;;;12.50;99.90;;;;;;5072532;28;20208;-78
2023/06/01 02:31:54;;;;;;;11.10;6.60;;;12.40;99.90;;;;;;5072801;28;20204;-76
2023/06/01 02:34:21;;;;;;;15.47;6.70;;;12.40;99.90;;;;;;5072289;28;20270;-76
2023/06/01 02:36:49;;;;;;;9.70;6.03;;;12.40;99.90;;;;;;5089927;28;20323;-75
2023/06/01 02:39:17;;;;;;;16.07;6.77;;;12.40;99.90;;;;;;5092620;28;20224;-76
2023/06/01 02:41:44;;;;;;;13.90;6.97;;;12.40;99.90;;;;;;5072121;28;20689;-76
2023/06/01 02:44:11;;;;;;;13.10;6.53;;;12.40;99.90;;;;;;5072046;28;20225;-77
2023/06/01 02:46:37;;;;;;;13.33;7.40;;;12.40;99.90;;;;;;5071678;28;20199;-76
2023/06/01 02:49:04;;;;;;;12.30;6.53;;;12.40;99.90;;;;;;5071186;28;20197;-75
2023/06/01 02:51:32;;;;;;;14.03;6.73;;;12.40;99.90;;;;;;5071642;28;20695;-75
2023/06/01 02:54:01;;;;;;;9.97;6.27;;;12.40;99.90;;;;;;5071502;28;20228;-77
2023/06/01 02:56:28;;;;;;;11.67;6.60;;;12.40;99.90;;;;;;5071620;28;20492;-76
2023/06/01 02:58:55;;;;;;;11.23;7.37;;;12.30;99.90;;;;;;5072079;28;20189;-75
2023/06/01 03:01:22;;;;;;;11.63;7.53;;;12.30;99.90;;;;;;5071262;28;20239;-75
2023/06/01 03:03:52;;;;;;;11.17;6.90;;;12.20;99.90;;;;;;5071700;28;20559;-77
2023/06/01 03:06:21;;;;;;;14.47;8.07;;;12.30;99.90;;;;;;5071705;28;20304;-74
2023/06/01 03:08:48;;;;;;;13.80;8.30;;;12.20;99.90;;;;;;5070678;28;20247;-76
2023/06/01 03:11:16;;;;;;;11.53;7.27;;;12.20;99.90;;;;;;5071612;28;20692;-79
2023/06/01 03:13:43;;;;;;;12.77;8.43;;;12.20;99.90;;;;;;5071904;28;20288;-75
2023/06/01 03:16:10;;;;;;;12.40;8.27;;;12.10;99.90;;;;;;5071226;28;20197;-77
2023/06/01 03:18:37;;;;;;;13.53;9.97;;;12.10;99.90;;;;;;5071786;28;20220;-77
2023/06/01 03:21:04;;;;;;;12.33;9.20;;;12.10;99.90;;;;;;5071659;28;20201;-76
2023/06/01 03:23:31;;;;;;;14.33;9.40;;;12.10;99.90;;;;;;5070773;28;20865;-77
2023/06/01 03:25:58;;;;;;;13.63;9.33;;;12.10;99.90;;;;;;5071518;28;20231;-75
2023/06/01 03:28:26;;;;;;;15.10;9.57;;;12.10;99.90;;;;;;5071494;28;20275;-76
2023/06/01 03:30:53;;;;;;;17.43;10.17;;;12.10;99.90;;;;;;5070501;28;20208;-76
2023/06/01 03:33:20;;;;;;;22.50;10.93;;;12.10;99.90;;;;;;5071487;28;20194;-74
2023/06/01 03:35:49;;;;;;;15.23;10.03;;;12.20;99.90;;;;;;5073013;28;20242;-74
2023/06/01 03:38:16;;;;;;;18.40;11.47;;;12.20;99.90;;;;;;5074798;28;20213;-75
2023/06/01 03:40:43;;;;;;;16.90;10.00;;;12.20;99.90;;;;;;5075320;28;20289;-77
2023/06/01 03:43:10;;;;;;;13.00;9.13;;;12.20;99.90;;;;;;5075329;28;20217;-77
2023/06/01 03:45:39;;;;;;;15.80;9.67;;;12.10;99.90;;;;;;5074766;28;20197;-75
2023/06/01 03:48:06;;;;;;;15.00;9.00;;;12.10;99.90;;;;;;5075227;28;20688;-77
2023/06/01 03:50:33;;;;;;;11.67;8.13;;;12.10;99.90;;;;;;5074518;28;20857;-75
2023/06/01 03:53:00;;;;;;;14.43;7.63;;;12.10;99.90;;;;;;5075014;28;20200;-76
2023/06/01 03:55:27;;;;;;;11.53;7.40;;;12.00;99.90;;;;;;5074813;28;20301;-78
2023/06/01 03:57:54;;;;;;;13.93;6.97;;;12.00;99.90;;;;;;5074259;28;20228;-76
2023/06/01 04:00:22;;;;;;;10.93;7.10;;;12.10;99.90;;;;;;5074991;28;20208;-76
2023/06/01 04:02:53;;;;;;;14.20;7.53;;;12.10;99.90;;;;;;5074490;28;20197;-75
2023/06/01 04:05:20;;;;;;;10.90;6.83;;;12.10;99.90;;;;;;5074575;28;20235;-76
2023/06/01 04:07:48;;;;;;;11.47;6.87;;;12.20;99.90;;;;;;5074434;28;20284;-76
2023/06/01 04:10:16;;;;;;;15.10;7.33;;;12.10;99.90;;;;;;5074323;28;20554;-75
2023/06/01 04:12:43;;;;;;;12.10;6.47;;;12.10;99.90;;;;;;5073699;28;20197;-76
2023/06/01 04:15:11;;;;;;;15.17;7.03;;;12.10;99.90;;;;;;5074684;28;20201;-76
2023/06/01 04:17:39;;;;;;;10.90;6.10;;;12.10;99.90;;;;;;5085357;28;20220;-76
2023/06/01 04:20:10;;;;;;;15.10;7.60;;;12.10;99.90;;;;;;5094168;28;20291;-77
2023/06/01 04:22:37;;;;;;;14.03;7.77;;;12.10;99.90;;;;;;5079991;28;20200;-77
2023/06/01 04:25:07;;;;;;;10.83;5.70;;;12.20;99.90;;;;;;5074712;28;20201;-75
2023/06/01 04:27:36;;;;;;;12.57;6.23;;;12.20;99.90;;;;;;5074022;28;20194;-75
2023/06/01 04:30:07;;;;;;;11.17;6.53;;;12.10;99.90;;;;;;5074188;28;20283;-75
2023/06/01 04:32:34;;;;;;;10.93;5.77;;;12.20;99.90;;;;;;5073643;28;20532;-76
2023/06/01 04:35:04;;;;;;;10.80;6.50;;;12.10;99.90;;;;;;5074385;28;20198;-76
2023/06/01 04:37:34;;;;;;;8.73;5.83;;;12.10;99.90;;;;;;5073460;28;20237;-76
2023/06/01 04:40:06;;;;;;;7.43;5.77;;;12.10;99.90;;;;;;5073846;28;20232;-77
2023/06/01 04:42:33;;;;;;;8.27;5.10;;;12.20;99.90;;;;;;5073999;28;21028;-75
2023/06/01 04:45:01;;;;;;;9.93;5.93;;;12.20;99.90;;;;;;5073928;28;20205;-76
2023/06/01 04:47:28;;;;;;;12.30;6.63;;;12.20;99.90;;;;;;5073237;28;20217;-78
2023/06/01 04:49:56;;;;;;;10.00;6.37;;;12.30;99.90;;;;;;5073658;28;20560;-75
2023/06/01 04:52:22;;;;;;;14.20;6.43;;;12.30;99.90;;;;;;5073751;28;20216;-76
2023/06/01 04:54:51;;;;;;;11.20;5.80;;;12.30;99.90;;;;;;5073205;28;20225;-74
2023/06/01 04:57:18;;;;;;;14.00;7.20;;;12.30;99.90;;;;;;5073578;28;20312;-75
2023/06/01 04:59:45;;;;;;;10.37;5.87;;;12.30;99.90;;;;;;5073675;28;20202;-75
2023/06/01 05:02:12;;;;;;;10.90;6.53;;;12.40;99.90;;;;;;5073434;28;20194;-76
2023/06/01 05:04:39;;;;;;;10.67;7.03;;;12.40;99.90;;;;;;5073632;28;20197;-78
2023/06/01 05:07:07;;;;;;;10.50;6.53;;;12.40;99.90;;;;;;5073257;28;20236;-78
2023/06/01 05:09:34;;;;;;;14.27;6.20;;;12.40;99.90;;;;;;5073087;28;20197;-78
2023/06/01 05:12:02;;;;;;;10.47;5.83;;;12.40;99.90;;;;;;5073548;28;20759;-79
2023/06/01 05:14:29;;;;;;;8.43;5.70;;;12.40;99.90;;;;;;5073492;28;20204;-76
2023/06/01 05:16:56;;;;;;;10.00;6.10;;;12.50;99.90;;;;;;5073213;28;20496;-76
2023/06/01 05:19:23;;;;;;;8.47;5.77;;;12.50;99.90;;;;;;5073094;28;20232;-78
2023/06/01 05:21:50;;;;;;;13.70;6.33;;;12.50;99.90;;;;;;5072542;28;20598;-76
2023/06/01 05:24:17;;;;;;;10.70;5.00;;;12.50;99.90;;;;;;5073045;28;20205;-77
2023/06/01 05:26:43;;;;;;;8.13;5.23;;;12.60;99.90;;;;;;5073468;28;20280;-76
2023/06/01 05:29:12;;;;;;;8.43;4.80;;;12.60;99.90;;;;;;5072334;28;20198;-77
2023/06/01 05:31:39;;;;;;;8.67;4.80;;;12.50;99.90;;;;;;5073029;28;20201;-77
2023/06/01 05:34:06;;;;;;;9.20;5.07;;;12.50;99.90;;;;;;5073221;28;20216;-76
2023/06/01 05:36:32;;;;;;;11.63;6.00;;;12.60;99.90;;;;;;5071991;28;20324;-74
2023/06/01 05:38:59;;;;;;;8.90;4.97;;;12.60;99.90;;;;;;5073058;28;20232;-77
2023/06/01 05:41:27;;;;;;;8.37;5.20;;;12.70;99.90;;;;;;5072604;28;20205;-79
2023/06/01 05:43:54;;;;;;;9.57;5.47;;;12.70;99.90;;;;;;5071999;28;20251;-76
2023/06/01 05:46:24;;;;;;;9.93;5.10;;;12.80;99.90;;;;;;5072526;28;20589;-77
2023/06/01 05:48:51;;;;;;;10.30;6.10;;;12.80;99.90;;;;;;5072802;28;20276;-76
2023/06/01 05:51:18;;;;;;;10.40;5.90;;;12.70;99.90;;;;;;5071734;28;20212;-76
2023/06/01 05:53:45;;;;;;;8.97;5.40;;;12.80;99.90;;;;;;5072491;28;20284;-77
2023/06/01 05:56:12;;;;;;;8.40;5.03;;;12.80;99.90;;;;;;5064439;28;20279;-77
2023/06/01 05:58:39;;;;;;;10.57;5.37;;;12.90;99.90;;;;;;5071170;28;20531;-75
2023/06/01 06:01:06;;;;;;;7.63;4.50;;;12.90;99.90;;;;;;5072675;28;20202;-78
2023/06/01 06:03:34;;;;;;;7.83;4.23;;;12.90;99.90;;;;;;5071750;28;20294;-76
2023/06/01 06:06:01;;;;;;;6.67;4.03;;;13.00;99.90;;;;;;5071707;28;20296;-78
2023/06/01 06:08:29;;;;;;;7.63;4.17;;;13.10;99.90;;;;;;5071944;28;20271;-76
2023/06/01 06:10:56;;;;;;;9.47;4.53;;;13.00;99.90;;;;;;5071592;28;20305;-76
2023/06/01 06:13:23;;;;;;;6.93;4.20;;;13.00;99.90;;;;;;5072758;28;20402;-76
2023/06/01 06:15:50;;;;;;;7.47;3.83;;;13.10;99.90;;;;;;5072244;28;20208;-76
2023/06/01 06:18:16;;;;;;;9.60;4.83;;;13.10;99.90;;;;;;5071416;28;20217;-77
2023/06/01 06:20:45;;;;;;;5.13;3.70;;;13.10;99.90;;;;;;5072055;28;20617;-75
2023/06/01 06:23:12;;;;;;;8.20;4.20;;;13.20;99.90;;;;;;5072154;28;20288;-76
2023/06/01 06:25:40;;;;;;;7.83;4.07;;;13.30;99.90;;;;;;5071791;28;20200;-75
2023/06/01 06:28:08;;;;;;;10.10;4.90;;;13.20;99.90;;;;;;5071931;28;20264;-77
2023/06/01 06:30:34;;;;;;;8.13;3.90;;;13.20;99.90;;;;;;5072267;28;20235;-75
2023/06/01 06:33:01;;;;;;;6.57;3.90;;;13.30;99.90;;;;;;5071551;28;20201;-76
2023/06/01 06:35:28;;;;;;;7.77;3.70;;;13.40;99.90;;;;;;5090250;28;20227;-75
2023/06/01 06:37:56;;;;;;;5.70;4.00;;;13.40;99.90;;;;;;5080625;28;20656;-74
2023/06/01 06:40:23;;;;;;;7.17;4.27;;;13.50;99.90;;;;;;5071782;28;20202;-76
2023/06/01 06:42:51;;;;;;;7.40;4.10;;;13.60;99.90;;;;;;5082641;28;20220;-77
2023/06/01 06:45:17;;;;;;;7.20;4.32;;;13.70;99.90;;;;;;5089369;28;20204;-76
2023/06/01 06:47:46;;;;;;;8.63;4.65;;;13.70;99.90;;;;;;5091459;28;20199;-75
2023/06/01 06:50:13;;;;;;;6.27;3.43;;;13.80;99.90;;;;;;5075206;28;20593;-75
2023/06/01 06:52:40;;;;;;;9.93;4.40;;;13.80;99.90;;;;;;5071866;28;20201;-74
2023/06/01 06:55:10;;;;;;;6.27;4.30;;;13.80;99.90;;;;;;5071762;28;20206;-75
2023/06/01 06:57:38;;;;;;;5.50;3.77;;;13.80;99.90;;;;;;5071571;28;20200;-75
2023/06/01 07:00:07;;;;;;;6.90;4.00;;;13.80;99.90;;;;;;5070574;28;20201;-75
2023/06/01 07:02:35;;;;;;;9.83;4.23;;;13.80;99.90;;;;;;5077727;28;20207;-78
2023/06/01 07:05:03;;;;;;;5.10;3.63;;;13.90;99.90;;;;;;5087717;28;20204;-77
2023/06/01 07:07:30;;;;;;;6.53;3.83;;;13.90;99.90;;;;;;5091012;28;20217;-76
2023/06/01 07:09:57;;;;;;;7.03;3.97;;;13.90;99.90;;;;;;5081762;28;20672;-76
2023/06/01 07:12:25;;;;;;;6.97;4.20;;;13.90;99.90;;;;;;5087463;28;20241;-76
2023/06/01 07:14:52;;;;;;;5.87;3.80;;;13.90;99.90;;;;;;5079013;28;20200;-77
2023/06/01 07:17:19;;;;;;;7.17;3.80;;;13.90;99.90;;;;;;5085645;28;20304;-75
2023/06/01 07:19:46;;;;;;;7.97;3.80;;;14.00;99.90;;;;;;5095963;28;20224;-78
2023/06/01 07:22:13;;;;;;;7.63;3.50;;;14.10;99.90;;;;;;5095442;28;20254;-74
2023/06/01 07:24:40;;;;;;;8.27;3.70;;;14.10;99.90;;;;;;5090110;28;20209;-74
2023/06/01 07:27:07;;;;;;;7.57;4.07;;;14.20;99.90;;;;;;5074202;28;20232;-77
2023/06/01 07:29:36;;;;;;;6.82;4.10;;;14.20;99.90;;;;;;5074815;28;20284;-74
2023/06/01 07:32:03;;;;;;;5.47;3.47;;;14.30;99.90;;;;;;5075567;28;20291;-77
2023/06/01 07:34:29;;;;;;;5.73;3.30;;;14.30;99.90;;;;;;5075742;28;20283;-76
2023/06/01 07:36:58;;;;;;;4.93;3.13;;;14.30;99.90;;;;;;5074793;28;20247;-76
2023/06/01 07:39:25;;;;;;;7.75;3.80;;;14.30;99.90;;;;;;5075039;28;20264;-75
2023/06/01 07:41:53;;;;;;;5.10;2.83;;;14.30;99.90;;;;;;5093926;28;20221;-77
2023/06/01 07:44:20;;;;;;;8.32;3.60;;;14.40;99.90;;;;;;5094662;28;20193;-76
2023/06/01 07:46:48;;;;;;;5.55;3.42;;;14.50;99.90;;;;;;5095398;28;20201;-77
2023/06/01 07:49:16;;;;;;;9.07;3.10;;;14.40;99.90;;;;;;5079611;28;20220;-75
2023/06/01 07:51:43;;;;;;;7.70;3.53;;;14.50;99.90;;;;;;5074420;28;20233;-75
2023/06/01 07:54:10;;;;;;;7.38;3.78;;;14.50;99.90;;;;;;5075232;28;20759;-77
2023/06/01 07:56:37;;;;;;;9.85;3.50;;;14.60;99.90;;;;;;5073735;28;20205;-76
2023/06/01 07:59:04;;;;;;;7.30;3.10;;;14.50;99.90;;;;;;5075157;28;20271;-74
2023/06/01 08:01:32;;;;;;;6.53;3.40;;;14.60;99.90;;;;;;5075085;28;20198;-76
2023/06/01 08:04:01;;;;;;;7.60;3.40;;;14.50;99.90;;;;;;5080774;28;20207;-77
2023/06/01 08:06:28;;;;;;;5.63;3.20;;;14.70;99.90;;;;;;5094876;28;20295;-74
2023/06/01 08:08:55;;;;;;;8.05;3.35;;;14.70;99.90;;;;;;5094721;28;20231;-75
2023/06/01 08:11:23;;;;;;;7.63;3.20;;;14.90;99.90;;;;;;5086733;28;20213;-75
2023/06/01 08:13:50;;;;;;;7.20;2.92;;;14.90;99.90;;;;;;5074546;28;20198;-77
2023/06/01 08:16:17;;;;;;;5.95;3.13;;;15.00;99.90;;;;;;5073266;28;20205;-76
2023/06/01 08:18:44;;;;;;;6.05;3.42;;;15.10;99.90;;;;;;5072380;28;20311;-76
2023/06/01 08:21:13;;;;;;;7.10;3.22;;;15.20;99.90;;;;;;5079588;28;20299;-76
2023/06/01 08:23:41;;;;;;;5.05;2.97;;;15.20;99.90;;;;;;5093239;28;20196;-75
2023/06/01 08:26:07;;;;;;;7.95;3.50;;;15.30;99.90;;;;;;5079471;28;20215;-79
2023/06/01 08:28:34;;;;;;;7.95;3.58;;;15.50;99.90;;;;;;5073597;28;20658;-79
2023/06/01 08:31:01;;;;;;;6.20;3.22;;;15.60;99.90;;;;;;5074128;28;20296;-79
2023/06/01 08:33:28;;;;;;;4.00;2.72;;;15.60;99.90;;;;;;5073886;28;20847;-77
2023/06/01 08:35:56;;;;;;;5.75;3.55;;;15.60;99.90;;;;;;5073663;28;20344;-76
2023/06/01 08:38:24;;;;;;;5.68;3.20;;;15.60;99.90;;;;;;5074164;28;20280;-78
2023/06/01 08:40:51;;;;;;;6.03;3.40;;;15.70;99.90;;;;;;5073537;28;20225;-78
2023/06/01 08:43:21;;;;;;;6.03;3.45;;;15.60;99.90;;;;;;5074543;28;20267;-77
2023/06/01 08:45:48;;;;;;;6.85;3.47;;;15.60;99.90;;;;;;5093229;28;20612;-78
2023/06/01 08:48:17;;;;;;;11.48;3.80;;;15.70;99.90;;;;;;5076195;28;20281;-80
2023/06/01 08:50:45;;;;;;;5.82;3.55;;;16.00;99.90;;;;;;5073973;28;20205;-79
2023/06/01 08:53:12;;;;;;;5.43;3.38;;;16.10;99.90;;;;;;5073497;28;20633;-79
2023/06/01 08:55:41;;;;;;;6.40;3.28;;;16.20;99.90;;;;;;5073584;28;20309;-78
2023/06/01 08:58:08;;;;;;;9.45;3.70;;;16.10;99.90;;;;;;5073724;28;21009;-81
2023/06/01 09:00:36;;;;;;;4.97;3.20;;;16.10;99.90;;;;;;5073083;28;20521;-79
2023/06/01 09:03:04;;;;;;;8.13;3.42;;;16.10;99.90;;;;;;5073751;28;20319;-75
2023/06/01 09:05:31;;;;;;;5.10;3.22;;;16.20;99.90;;;;;;5073799;28;20211;-79
2023/06/01 09:07:58;;;;;;;10.43;3.97;;;16.40;99.90;;;;;;5073138;28;20266;-78
2023/06/01 09:10:26;;;;;;;4.78;3.55;;;16.40;99.90;;;;;;5080998;28;20776;-76
2023/06/01 09:12:55;;;;;;;5.57;3.38;;;16.50;99.90;;;;;;5093406;28;20189;-74
2023/06/01 09:15:23;;;;;;;12.20;4.78;;;16.50;99.90;;;;;;5079712;28;20580;-77
2023/06/01 09:17:51;;;;;;;5.70;3.65;;;16.60;99.90;;;;;;5093882;28;20605;-75
2023/06/01 09:20:24;;;;;;;5.07;3.22;;;16.60;99.90;;;;;;5084783;28;20228;-75
2023/06/01 09:22:51;;;;;;;5.20;4.03;;;16.70;99.90;;;;;;5092934;28;20200;-77
2023/06/01 09:25:26;;;;;;;6.80;3.67;;;16.80;99.90;;;;;;5093226;28;20284;-76
2023/06/01 09:27:56;;;;;;;6.65;3.75;;;16.80;99.90;;;;;;5073875;28;20501;-79
2023/06/01 09:30:24;;;;;;;5.63;3.63;;;16.90;99.90;;;;;;5073379;28;20195;-78
2023/06/01 09:32:52;;;;;;;7.95;3.58;;;16.60;99.90;;;;;;5072596;28;20267;-78
2023/06/01 09:35:38;;;;;;;7.47;3.47;;;16.70;99.90;;;;;;5073275;28;20208;-80
2023/06/01 09:38:06;;;;;;;6.25;3.55;;;16.80;99.90;;;;;;5081762;28;20747;-80
2023/06/01 09:40:34;;;;;;;6.40;2.95;;;16.80;99.90;;;;;;5092574;28;20293;-77
2023/06/01 09:43:02;;;;;;;7.13;3.45;;;16.90;99.90;;;;;;5083087;28;20300;-80
2023/06/01 09:45:32;;;;;;;5.32;3.30;;;17.20;99.90;;;;;;5092165;28;20200;-78
2023/06/01 09:48:18;;;;;;;6.28;3.13;;;17.40;99.90;;;;;;5092882;28;20189;-79
2023/06/01 09:50:44;;;;;;;7.35;3.13;;;17.50;99.90;;;;;;5084684;28;20195;-81
2023/06/01 09:53:11;;;;;;;6.65;3.47;;;17.50;99.90;;;;;;5092642;28;20658;-79
2023/06/01 09:55:58;;;;;;;7.90;3.35;;;17.50;99.90;;;;;;5091916;28;20275;-79
2023/06/01 09:58:27;;;;;;;9.88;3.20;;;17.60;99.90;;;;;;5088366;28;20193;-80
2023/06/01 10:00:55;;;;;;;5.75;3.47;;;17.80;99.90;;;;;;5091386;28;20223;-81
2023/06/01 10:03:23;;;;;;;9.68;3.20;;;17.80;99.90;;;;;;5092262;28;20526;-81
2023/06/01 10:05:51;;;;;;;6.53;2.88;;;17.90;99.90;;;;;;5092342;28;20204;-83
2023/06/01 10:08:19;;;;;;;5.18;3.00;;;18.00;99.90;;;;;;5093064;28;20254;-79
2023/06/01 10:10:48;;;;;;;7.28;3.33;;;17.80;99.90;;;;;;5092712;28;20280;-79
2023/06/01 10:13:15;;;;;;;6.43;3.72;;;17.90;99.90;;;;;;5092243;28;20722;-82
2023/06/01 10:15:44;;;;;;;6.05;3.85;;;17.90;99.90;;;;;;5092903;28;20189;-84
2023/06/01 10:18:11;;;;;;;5.90;3.30;;;17.70;99.90;;;;;;5083773;28;20208;-81
2023/06/01 10:20:39;;;;;;;6.55;3.40;;;17.60;99.90;;;;;;5093195;28;20337;-81
2023/06/01 10:23:06;;;;;;;8.98;3.35;;;17.70;99.90;;;;;;5091481;28;20205;-77
2023/06/01 10:25:38;;;;;;;7.07;3.30;;;18.00;99.90;;;;;;5091913;28;20564;-79
2023/06/01 10:28:07;;;;;;;6.28;3.97;;;18.40;99.90;;;;;;5085911;28;20207;-77
2023/06/01 10:30:34;;;;;;;3.97;2.50;;;18.50;99.90;;;;;;5079451;28;20197;-76
2023/06/01 10:33:03;;;;;;;5.22;2.90;;;18.70;99.90;;;;;;5091192;28;20189;-80
2023/06/01 10:36:00;;;;;;;5.85;2.60;;;18.70;99.90;;;;;;5084570;28;20291;-80
2023/06/01 10:38:27;;;;;;;4.63;2.25;;;18.80;99.90;;;;;;5066115;28;20194;-81
2023/06/01 10:41:14;;;;;;;5.70;2.38;;;18.60;99.90;;;;;;5072098;28;20221;-77
2023/06/01 10:43:42;;;;;;;5.88;2.30;;;18.50;99.90;;;;;;5071910;28;20272;-81
2023/06/01 10:46:42;;;;;;;3.58;1.83;;;18.50;99.90;;;;;;5070782;28;20243;-79
2023/06/01 10:49:11;;;;;;;3.25;1.75;;;18.60;99.90;;;;;;5063921;28;20288;-81
2023/06/01 10:51:38;;;;;;;4.82;2.35;;;18.60;99.90;;;;;;5072324;28;20621;-80
2023/06/01 10:54:29;;;;;;;4.50;2.10;;;18.30;99.90;;;;;;5071801;28;20224;-80
2023/06/01 10:57:20;;;;;;;5.65;2.13;;;18.00;99.90;;;;;;5090324;28;20247;-80
2023/06/01 11:00:16;;;;;;;2.38;2.17;;;17.80;99.90;;;;;;5090596;28;20228;-78
2023/06/01 11:02:51;;;;;;;3.75;2.08;;;17.60;99.90;;;;;;5090846;28;20226;-78
2023/06/01 11:05:46;;;;;;;3.03;1.48;;;17.40;99.90;;;;;;5087880;28;20985;-78
2023/06/01 11:08:51;;;;;;;5.10;1.85;;;17.30;99.90;;;;;;5088992;28;20219;-76
2023/06/01 11:11:20;;;;;;;3.15;1.30;;;17.30;99.90;;;;;;5089493;28;20199;-77
2023/06/01 11:14:08;;;;;;;4.07;1.70;;;17.40;99.90;;;;;;5088925;28;20208;-79
2023/06/01 11:16:35;;;;;;;2.88;1.15;;;17.40;99.90;;;;;;5090553;28;20296;-78
2023/06/01 11:19:03;;;;;;;4.70;1.50;;;17.20;99.90;;;;;;5091800;28;20199;-78
2023/06/01 11:21:37;;;;;;;2.90;1.35;;;17.20;99.90;;;;;;5088815;28;20291;-78
2023/06/01 11:24:09;;;;;;;2.67;1.38;;;17.10;99.90;;;;;;5091218;28;20204;-75
2023/06/01 11:26:39;;;;;;;4.05;1.50;;;16.80;99.90;;;;;;5092023;28;20201;-79
2023/06/01 11:29:17;;;;;;;3.42;1.83;;;16.80;99.90;;;;;;5091772;28;20196;-79
2023/06/01 11:31:46;;;;;;;2.28;1.30;;;16.70;99.90;;;;;;5075848;28;20216;-78
2023/06/01 11:34:15;;;;;;;3.35;1.83;;;16.70;99.90;;;;;;5071080;28;20212;-76
2023/06/01 11:36:48;;;;;;;3.13;1.85;;;16.60;99.90;;;;;;5069859;28;20233;-75
2023/06/01 11:39:23;;;;;;;2.55;1.30;;;16.40;99.90;;;;;;5070257;28;20701;-77
2023/06/01 11:42:06;;;;;;;3.17;1.35;;;16.40;99.90;;;;;;5069879;28;20303;-80
2023/06/01 11:44:33;;;;;;;2.38;1.52;;;16.30;99.90;;;;;;5070089;28;20640;-78
2023/06/01 11:47:00;;;;;;;1.88;1.30;;;16.10;99.90;;;;;;5070923;28;20197;-77
2023/06/01 11:49:27;;;;;;;3.55;1.38;;;16.00;99.90;;;;;;5070624;28;20201;-77
2023/06/01 11:51:57;;;;;;;7.60;1.23;;;15.80;99.90;;;;;;5072065;28;20581;-78
2023/06/01 11:54:26;;;;;;;1.58;0.90;;;15.80;99.90;;;;;;5071915;28;20208;-80
2023/06/01 11:56:53;;;;;;;4.55;0.90;;;15.80;99.90;;;;;;5072279;28;20496;-78
2023/06/01 11:59:21;;;;;;;2.17;0.90;;;15.70;99.90;;;;;;5074855;28;20216;-75
2023/06/01 12:01:50;;;;;;;2.40;0.88;;;15.90;99.90;;;;;;5075202;28;20549;-75
2023/06/01 12:04:19;;;;;;;1.92;0.85;;;16.00;99.90;;;;;;5074097;28;20328;-75
2023/06/01 12:06:46;;;;;;;1.98;0.80;;;16.10;99.90;;;;;;5074720;28;20658;-76
2023/06/01 12:09:16;;;;;;;2.70;0.70;;;16.20;99.90;;;;;;5075278;28;20193;-76
2023/06/01 12:11:44;;;;;;;2.55;0.90;;;16.20;99.90;;;;;;5076003;28;20496;-77
2023/06/01 12:14:11;;;;;;;1.45;0.90;;;16.40;99.90;;;;;;5099806;28;20287;-76
2023/06/01 12:16:58;;;;;;;1.85;1.00;;;16.40;99.90;;;;;;5095851;28;20203;-76
2023/06/01 12:19:25;;;;;;;2.75;0.90;;;16.50;99.90;;;;;;5089739;28;20265;-77
2023/06/01 12:21:54;;;;;;;1.52;0.60;;;16.50;99.90;;;;;;5093818;28;20590;-77
2023/06/01 12:24:29;;;;;;;2.85;1.17;;;16.50;99.90;;;;;;5094933;28;20227;-80
2023/06/01 12:26:57;;;;;;;2.72;1.20;;;16.60;99.90;;;;;;5088412;28;20207;-76
2023/06/01 12:29:41;;;;;;;4.18;1.52;;;16.40;99.90;;;;;;5095764;28;20202;-78
2023/06/01 12:32:09;;;;;;;4.25;1.80;;;16.40;99.90;;;;;;5105231;28;20203;-78
2023/06/01 12:34:37;;;;;;;7.05;2.25;;;16.20;99.90;;;;;;5094061;28;20208;-79
2023/06/01 12:37:17;;;;;;;5.18;1.90;;;16.10;99.90;;;;;;5088320;28;20228;-79
2023/06/01 12:39:53;;;;;;;5.97;2.05;;;16.00;99.90;;;;;;5088601;28;20228;-78
2023/06/01 12:42:21;;;;;;;5.03;2.45;;;15.90;99.90;;;;;;5093406;28;20872;-78
2023/06/01 12:44:54;;;;;;;8.23;2.80;;;15.90;99.90;;;;;;5092729;28;20196;-75
2023/06/01 12:47:21;;;;;;;8.38;2.58;;;16.10;99.90;;;;;;5090931;28;20258;-76
2023/06/01 12:50:03;;;;;;;9.95;2.92;;;16.10;99.90;;;;;;5092537;28;20280;-79
2023/06/01 12:52:30;;;;;;;4.38;2.50;;;16.20;99.90;;;;;;5073073;28;20258;-76